createdAt,value
2023-05-14T00:02:57.949Z,101691.63
2023-05-14T00:08:00.126Z,101695.97
2023-05-14T00:13:02.503Z,101697.66
2023-05-14T00:18:04.797Z,101695.97
2023-05-14T00:23:06.834Z,101693.31
2023-05-14T00:28:08.832Z,101703.84
2023-05-14T00:33:10.803Z,101681.91
2023-05-14T00:38:17.212Z,101685.09
2023-05-14T00:43:22.921Z,101683.38
2023-05-14T00:48:25.739Z,101678.06
2023-05-14T00:53:28.668Z,101678.06
2023-05-14T00:58:30.792Z,101670.06
2023-05-14T01:03:33.929Z,101677.22
2023-05-14T01:08:36.309Z,101667.53
2023-05-14T01:13:51.526Z,101663.28
2023-05-14T01:18:56.084Z,101695.13
2023-05-14T01:23:58.048Z,101683.38
2023-05-14T01:29:26.966Z,101674.56
2023-05-14T01:34:31.577Z,101680.09
2023-05-14T01:39:38.029Z,101671.38
2023-05-14T01:44:40.939Z,101674.28
2023-05-14T01:49:43.033Z,101673.53
2023-05-14T01:54:45.147Z,101659.97
2023-05-14T01:59:47.353Z,101641.78
2023-05-14T02:04:50.102Z,101663.72
2023-05-14T02:09:53.314Z,101665.44
2023-05-14T02:14:55.822Z,101645.84
2023-05-14T02:19:58.021Z,101658.31
2023-05-14T02:25:01.212Z,101650.31
2023-05-14T02:30:04.684Z,101655.75
2023-05-14T02:35:07.260Z,101641.59
2023-05-14T02:40:09.729Z,101647.66
2023-05-14T02:45:12.468Z,101645.72
2023-05-14T02:50:15.224Z,101636.59
2023-05-14T02:55:17.277Z,101637.22
2023-05-14T03:00:20.076Z,101628.38
2023-05-14T03:05:22.460Z,101637.00
2023-05-14T03:10:24.607Z,101637.13
2023-05-14T03:15:26.801Z,101640.84
2023-05-14T03:20:29.025Z,101647.00
2023-05-14T03:25:31.012Z,101645.09
2023-05-14T03:30:33.794Z,101651.19
2023-05-14T03:35:36.068Z,101640.53
2023-05-14T03:40:38.121Z,101648.50
2023-05-14T03:45:40.398Z,101641.59
2023-05-14T03:50:42.533Z,101631.03
2023-05-14T03:55:44.684Z,101633.59
2023-05-14T04:00:46.722Z,101623.81
2023-05-14T04:05:48.860Z,101629.22
2023-05-14T04:10:51.752Z,101634.66
2023-05-14T04:15:53.941Z,101640.13
2023-05-14T04:20:56.027Z,101636.47
2023-05-14T04:25:58.823Z,101647.00
2023-05-14T04:31:01.401Z,101641.06
2023-05-14T04:36:05.174Z,101652.56
2023-05-14T04:41:07.273Z,101650.88
2023-05-14T04:46:09.734Z,101655.22
2023-05-14T04:51:11.740Z,101654.28
2023-05-14T04:56:13.751Z,101668.53
2023-05-14T05:01:15.992Z,101664.94
2023-05-14T05:06:18.185Z,101660.44
2023-05-14T05:11:20.163Z,101650.63
2023-05-14T05:16:22.457Z,101650.63
2023-05-14T05:21:24.946Z,101672.06
2023-05-14T05:26:27.322Z,101673.13
2023-05-14T05:31:29.589Z,101682.69
2023-05-14T05:36:32.189Z,101683.66
2023-05-14T05:41:34.340Z,101690.69
2023-05-14T05:46:36.411Z,101705.81
2023-05-14T05:51:38.540Z,101699.38
2023-05-14T05:56:40.544Z,101704.00
2023-05-14T06:01:43.692Z,101711.84
2023-05-14T06:06:45.928Z,101718.03
2023-05-14T06:11:47.920Z,101718.16
2023-05-14T06:16:49.991Z,101715.50
2023-05-14T06:21:52.146Z,101725.28
2023-05-14T06:26:54.300Z,101728.16
2023-05-14T06:32:03.867Z,101731.75
2023-05-14T06:37:07.191Z,101738.59
2023-05-14T06:42:09.210Z,101725.16
2023-05-14T06:47:11.532Z,101747.44
2023-05-14T06:52:13.558Z,101733.38
2023-05-14T06:57:15.517Z,101734.94
2023-05-14T07:02:17.567Z,101736.78
2023-05-14T07:07:21.327Z,101731.56
2023-05-14T07:12:23.113Z,101738.78
2023-05-14T07:17:25.326Z,101741.56
2023-05-14T07:22:27.279Z,101746.56
2023-05-14T07:27:29.283Z,101747.44
2023-05-14T07:32:31.354Z,101741.25
2023-05-14T07:37:33.693Z,101741.34
2023-05-14T07:42:37.293Z,101737.50
2023-05-14T07:47:40.896Z,101741.13
2023-05-14T07:52:43.192Z,101735.19
2023-05-14T07:57:45.925Z,101732.63
2023-05-14T08:02:49.403Z,101729.63
2023-05-14T08:07:51.554Z,101721.97
2023-05-14T08:12:53.604Z,101742.09
2023-05-14T08:17:56.136Z,101740.59
2023-05-14T08:22:58.329Z,101749.44
2023-05-14T08:28:00.574Z,101747.72
2023-05-14T08:33:02.722Z,101745.06
2023-05-14T08:38:04.762Z,101742.94
2023-05-14T08:43:07.262Z,101730.47
2023-05-14T08:48:15.418Z,101740.50
2023-05-14T08:53:17.514Z,101742.22
2023-05-14T08:58:19.803Z,101741.13
2023-05-14T09:03:23.317Z,101733.03
2023-05-14T09:08:25.567Z,101735.06
2023-05-14T09:13:28.361Z,101742.31
2023-05-14T09:18:30.757Z,101742.94
2023-05-14T09:23:35.888Z,101745.50
2023-05-14T09:28:44.798Z,101740.41
2023-05-14T09:33:55.517Z,101743.25
2023-05-14T09:38:58.165Z,101743.91
2023-05-14T09:44:03.332Z,101743.91
2023-05-14T09:49:06.189Z,101759.03
2023-05-14T09:54:09.009Z,101752.09
2023-05-14T09:59:11.282Z,101757.22
2023-05-14T10:04:14.280Z,101757.09
2023-05-14T10:09:20.742Z,101746.69
2023-05-14T10:14:29.534Z,101754.75
2023-05-14T10:19:34.597Z,101759.03
2023-05-14T10:24:39.094Z,101761.56
2023-05-14T10:29:42.233Z,101752.00
2023-05-14T10:34:44.514Z,101760.84
2023-05-14T10:39:51.040Z,101758.19
2023-05-14T10:45:09.002Z,101758.78
2023-05-14T10:50:13.415Z,101760.59
2023-05-14T10:55:17.013Z,101763.50
2023-05-14T11:00:19.110Z,101754.56
2023-05-14T11:05:21.122Z,101742.81
2023-05-14T11:10:25.913Z,101741.88
2023-05-14T11:15:29.263Z,101725.16
2023-05-14T11:20:32.880Z,101721.25
2023-05-14T11:25:34.963Z,101720.69
2023-05-14T11:30:38.445Z,101723.25
2023-05-14T11:35:42.297Z,101718.03
2023-05-14T11:40:58.844Z,101723.47
2023-05-14T11:46:01.059Z,101729.63
2023-05-14T11:51:05.005Z,101724.84
2023-05-14T11:56:09.674Z,101717.91
2023-05-14T12:01:13.972Z,101708.47
2023-05-14T12:06:15.993Z,101710.28
2023-05-14T12:11:21.871Z,101697.91
2023-05-14T12:16:23.999Z,101701.34
2023-05-14T12:21:27.549Z,101701.34
2023-05-14T12:26:33.376Z,101698.66
2023-05-14T12:31:36.664Z,101699.53
2023-05-14T12:36:38.784Z,101703.84
2023-05-14T12:41:40.857Z,101702.19
2023-05-14T12:46:42.995Z,101705.81
2023-05-14T12:51:45.810Z,101701.09
2023-05-14T12:56:47.928Z,101698.44
2023-05-14T13:01:50.088Z,101706.41
2023-05-14T13:06:52.600Z,101704.72
2023-05-14T13:11:54.672Z,101704.84
2023-05-14T13:16:56.810Z,101690.44
2023-05-14T13:21:58.826Z,101694.91
2023-05-14T13:27:00.873Z,101690.44
2023-05-14T13:32:02.919Z,101691.19
2023-05-14T13:37:05.047Z,101693.13
2023-05-14T13:42:07.130Z,101677.88
2023-05-14T13:47:09.272Z,101661.91
2023-05-14T13:52:11.407Z,101646.41
2023-05-14T13:57:13.464Z,101653.84
2023-05-14T14:02:15.944Z,101658.16
2023-05-14T14:07:18.106Z,101645.72
2023-05-14T14:12:20.174Z,101646.56
2023-05-14T14:17:22.308Z,101646.56
2023-05-14T14:22:27.217Z,101649.22
2023-05-14T14:27:36.172Z,101640.28
2023-05-14T14:32:38.152Z,101630.50
2023-05-14T14:37:41.391Z,101635.81
2023-05-14T14:42:43.849Z,101632.19
2023-05-14T14:47:46.845Z,101631.34
2023-05-14T14:52:48.948Z,101644.66
2023-05-14T14:57:51.037Z,101641.03
2023-05-14T15:02:53.172Z,101639.22
2023-05-14T15:07:55.302Z,101639.94
2023-05-14T15:12:59.183Z,101640.91
2023-05-14T15:18:01.351Z,101639.22
2023-05-14T15:23:03.494Z,101631.97
2023-05-14T15:28:08.629Z,101632.72
2023-05-14T15:33:10.887Z,101632.59
2023-05-14T15:38:13.083Z,101629.19
2023-05-14T15:43:15.614Z,101630.03
2023-05-14T15:48:17.826Z,101639.72
2023-05-14T15:53:19.964Z,101645.78
2023-05-14T15:58:22.080Z,101641.31
2023-05-14T16:03:24.238Z,101643.00
2023-05-14T16:08:26.479Z,101650.78
2023-05-14T16:13:28.543Z,101643.75
2023-05-14T16:18:30.698Z,101642.78
2023-05-14T16:23:32.775Z,101640.84
2023-05-14T16:28:34.818Z,101642.56
2023-05-14T16:33:36.972Z,101632.16
2023-05-14T16:38:48.202Z,101641.50
2023-05-14T16:43:59.171Z,101631.69
2023-05-14T16:49:02.509Z,101633.25
2023-05-14T16:54:04.642Z,101636.78
2023-05-14T16:59:07.645Z,101631.44
2023-05-14T17:04:10.613Z,101624.31
2023-05-14T17:09:12.591Z,101629.53
2023-05-14T17:14:14.845Z,101628.47
2023-05-14T17:19:17.027Z,101621.19
2023-05-14T17:24:18.999Z,101628.34
2023-05-14T17:29:21.274Z,101622.06
2023-05-14T17:34:23.307Z,101627.28
2023-05-14T17:39:25.453Z,101620.25
2023-05-14T17:44:27.427Z,101629.94
2023-05-14T17:49:29.433Z,101619.19
2023-05-14T17:54:31.513Z,101638.53
2023-05-14T17:59:34.001Z,101644.00
2023-05-14T18:04:36.000Z,101645.66
2023-05-14T18:09:38.158Z,101655.38
2023-05-14T18:14:40.319Z,101655.47
2023-05-14T18:19:42.549Z,101661.66
2023-05-14T18:24:45.523Z,101664.22
2023-05-14T18:29:47.542Z,101675.94
2023-05-14T18:34:49.529Z,101674.97
2023-05-14T18:39:51.625Z,101688.28
2023-05-14T18:44:53.667Z,101690.94
2023-05-14T18:49:58.249Z,101696.41
2023-05-14T18:55:00.312Z,101701.72
2023-05-14T19:00:03.045Z,101707.06
2023-05-14T19:05:05.379Z,101702.69
2023-05-14T19:10:08.330Z,101710.69
2023-05-14T19:15:10.842Z,101715.06
2023-05-14T19:20:12.962Z,101727.38
2023-05-14T19:25:15.106Z,101726.66
2023-05-14T19:30:17.912Z,101729.31
2023-05-14T19:35:19.915Z,101732.84
2023-05-14T19:40:21.975Z,101729.31
2023-05-14T19:45:24.282Z,101742.63
2023-05-14T19:50:26.584Z,101753.28
2023-05-14T19:55:28.804Z,101752.44
2023-05-14T20:00:30.993Z,101754.16
2023-05-14T20:05:34.485Z,101751.47
2023-05-14T20:10:36.584Z,101757.66
2023-05-14T20:15:39.662Z,101756.06
2023-05-14T20:20:42.897Z,101764.91
2023-05-14T20:25:45.064Z,101748.91
2023-05-14T20:30:47.219Z,101746.25
2023-05-14T20:35:49.339Z,101737.31
2023-05-14T20:40:51.278Z,101746.25
2023-05-14T20:45:53.518Z,101746.34
2023-05-14T20:50:55.661Z,101727.63
2023-05-14T20:55:59.134Z,101725.81
2023-05-14T21:01:01.320Z,101732.09
2023-05-14T21:06:03.567Z,101730.38
2023-05-14T21:11:05.663Z,101732.09
2023-05-14T21:16:07.963Z,101719.63
2023-05-14T21:21:09.945Z,101720.59
2023-05-14T21:26:11.942Z,101731.25
2023-05-14T21:31:14.029Z,101730.28
2023-05-14T21:36:16.169Z,101726.75
2023-05-14T21:41:18.225Z,101717.06
2023-05-14T21:46:20.382Z,101706.41
2023-05-14T21:51:22.745Z,101703.03
2023-05-14T21:56:24.812Z,101705.56
2023-05-14T22:01:26.874Z,101695.88
2023-05-14T22:06:28.947Z,101696.72
2023-05-14T22:11:31.055Z,101687.88
2023-05-14T22:16:33.485Z,101679.88
2023-05-14T22:21:35.689Z,101680.75
2023-05-14T22:26:37.702Z,101682.56
2023-05-14T22:31:39.860Z,101664.91
2023-05-14T22:36:41.921Z,101660.44
2023-05-14T22:41:44.008Z,101664.75
2023-05-14T22:46:46.281Z,101659.34
2023-05-14T22:51:48.430Z,101662.97
2023-05-14T22:56:51.563Z,101663.91
2023-05-14T23:01:53.731Z,101661.38
2023-05-14T23:06:55.920Z,101650.72
2023-05-14T23:11:57.884Z,101651.44
2023-05-14T23:16:59.977Z,101654.97
2023-05-14T23:22:02.016Z,101658.72
2023-05-14T23:27:04.138Z,101651.44
2023-05-14T23:32:06.721Z,101647.81
2023-05-14T23:37:08.801Z,101633.44
2023-05-14T23:42:11.066Z,101621.31
2023-05-14T23:47:13.246Z,101624.09
2023-05-14T23:52:15.235Z,101627.63
2023-05-14T23:57:17.317Z,101624.72
